Time;durP1;ratioP1;P1;durP2;ratioP2;P2;SDS_P1;SDS_P2;PMS_P1;PMS_P2;Temp;Humidity;BMP_temperature;BMP_pressure;BME280_temperature;BME280_humidity;BME280_pressure;Samples;Min_cycle;Max_cycle;Signal;HPM_P1;HPM_P2
2024/04/10 00:00:49;;;;;;;15.75;2.67;;;9.90;99.90;;;;;;5489744;26;20388;-56
2024/04/10 00:03:18;;;;;;;8.45;2.53;;;9.90;99.90;;;;;;5489762;26;20493;-53
2024/04/10 00:06:20;;;;;;;18.00;2.53;;;9.90;99.90;;;;;;5489651;26;20010;-52
2024/04/10 00:08:45;;;;;;;4.20;1.98;;;10.00;99.90;;;;;;5343833;26;20457;-68
2024/04/10 00:11:11;;;;;;;8.38;2.28;;;10.00;99.90;;;;;;5458724;26;20005;-55
2024/04/10 00:13:37;;;;;;;6.28;1.90;;;10.00;99.90;;;;;;5488026;26;20088;-54
2024/04/10 00:16:05;;;;;;;3.20;1.63;;;9.90;99.90;;;;;;5489035;26;20343;-54
2024/04/10 00:18:33;;;;;;;7.93;2.03;;;9.90;99.90;;;;;;5487341;26;20391;-52
2024/04/10 00:20:59;;;;;;;8.02;2.42;;;9.90;99.90;;;;;;5489244;26;20482;-53
2024/04/10 00:23:25;;;;;;;15.40;2.33;;;9.80;99.90;;;;;;5489099;26;20079;-52
2024/04/10 00:25:59;;;;;;;4.88;1.58;;;9.70;99.90;;;;;;5489219;26;20006;-53
2024/04/10 00:28:27;;;;;;;15.77;2.10;;;9.70;99.90;;;;;;5489457;26;20031;-53
2024/04/10 00:30:52;;;;;;;;;;;9.70;99.90;;;;;;5489703;26;20335;-54
2024/04/10 00:33:19;;;;;;;9.00;2.22;;;9.80;99.90;;;;;;5489092;26;19924;-52
2024/04/10 00:35:58;;;;;;;11.70;2.25;;;9.70;99.90;;;;;;5456953;26;20081;-52
2024/04/10 00:38:26;;;;;;;7.13;2.00;;;9.60;99.90;;;;;;5489171;26;19998;-53
2024/04/10 00:40:55;;;;;;;;;;;9.70;99.90;;;;;;5457757;26;20472;-53
2024/04/10 00:43:21;;;;;;;15.38;2.35;;;9.70;99.90;;;;;;5489223;26;19946;-52
2024/04/10 00:45:55;;;;;;;5.68;2.22;;;9.80;99.90;;;;;;5488777;26;19998;-54
2024/04/10 00:48:21;;;;;;;8.98;2.28;;;9.80;99.90;;;;;;5454524;26;20010;-53
2024/04/10 00:50:47;;;;;;;17.92;2.80;;;9.80;99.90;;;;;;5487062;26;20000;-53
2024/04/10 00:53:13;;;;;;;10.82;2.63;;;9.80;99.90;;;;;;5488583;26;19994;-52
2024/04/10 00:55:39;;;;;;;11.77;2.03;;;9.90;99.90;;;;;;5488711;26;20608;-53
2024/04/10 00:58:05;;;;;;;7.40;2.25;;;10.00;99.90;;;;;;5456766;26;19998;-55
2024/04/10 01:00:32;;;;;;;7.28;2.47;;;10.00;99.90;;;;;;5486955;26;20009;-53
2024/04/10 01:02:58;;;;;;;7.43;1.83;;;10.00;99.90;;;;;;5456089;26;19994;-52
2024/04/10 01:05:23;;;;;;;10.68;2.42;;;10.00;99.90;;;;;;5455545;26;20070;-54
2024/04/10 01:07:49;;;;;;;7.22;1.98;;;10.10;99.90;;;;;;5488923;26;20473;-53
2024/04/10 01:10:14;;;;;;;7.97;2.22;;;10.10;99.90;;;;;;5488275;26;19998;-54
2024/04/10 01:12:43;;;;;;;11.10;2.55;;;10.00;99.90;;;;;;5488511;26;20009;-57
2024/04/10 01:15:09;;;;;;;11.20;2.55;;;10.00;99.90;;;;;;5488101;26;19994;-53
2024/04/10 01:17:35;;;;;;;23.65;2.95;;;10.00;99.90;;;;;;5488434;26;20006;-53
2024/04/10 01:20:07;;;;;;;7.68;2.20;;;10.00;99.90;;;;;;5456094;26;19999;-53
2024/04/10 01:22:36;;;;;;;14.57;2.92;;;10.00;99.90;;;;;;5486071;26;20350;-53
2024/04/10 01:25:05;;;;;;;8.77;1.85;;;10.00;99.90;;;;;;5488279;26;19998;-53
2024/04/10 01:27:33;;;;;;;10.48;2.97;;;10.00;99.90;;;;;;5488214;26;20002;-55
2024/04/10 01:29:58;;;;;;;;;;;10.00;99.90;;;;;;5488544;26;19994;-55
2024/04/10 01:32:24;;;;;;;12.82;2.33;;;10.00;99.90;;;;;;5487804;26;19992;-47
2024/04/10 01:34:50;;;;;;;8.27;1.98;;;10.00;99.90;;;;;;5488249;26;20001;-45
2024/04/10 01:37:15;;;;;;;6.82;2.05;;;10.00;99.90;;;;;;5488007;26;19997;-43
2024/04/10 01:39:41;;;;;;;14.48;2.25;;;10.00;99.90;;;;;;5487627;26;20005;-46
2024/04/10 01:42:07;;;;;;;6.53;2.20;;;10.10;99.90;;;;;;5488139;26;20013;-47
2024/04/10 01:44:33;;;;;;;6.57;1.83;;;10.10;99.90;;;;;;5488166;26;20516;-44
2024/04/10 01:46:58;;;;;;;12.55;2.42;;;10.00;99.90;;;;;;5487839;26;19994;-41
2024/04/10 01:49:24;;;;;;;13.65;2.60;;;10.10;99.90;;;;;;5455884;26;20000;-70
2024/04/10 01:51:50;;;;;;;14.63;2.30;;;10.10;99.90;;;;;;5487767;26;20442;-44
2024/04/10 01:54:15;;;;;;;9.05;1.98;;;10.10;99.90;;;;;;5487915;26;20522;-42
2024/04/10 01:56:41;;;;;;;12.60;2.35;;;10.10;99.90;;;;;;5455845;26;20059;-52
2024/04/10 01:59:07;;;;;;;9.27;2.15;;;10.10;99.90;;;;;;5487765;26;20001;-47
2024/04/10 02:01:34;;;;;;;10.68;2.47;;;10.10;99.90;;;;;;5487606;26;20005;-44
2024/04/10 02:04:00;;;;;;;13.85;2.35;;;10.10;99.90;;;;;;5487671;26;20451;-43
2024/04/10 02:06:25;;;;;;;6.28;1.73;;;10.20;99.90;;;;;;5487486;26;20004;-44
2024/04/10 02:08:51;;;;;;;12.48;3.08;;;10.20;99.90;;;;;;5487789;26;19995;-52
2024/04/10 02:11:22;;;;;;;7.22;1.92;;;10.20;99.90;;;;;;5455953;26;19990;-46
2024/04/10 02:13:48;;;;;;;11.10;1.58;;;10.20;99.90;;;;;;5491224;26;20006;-54
2024/04/10 02:16:14;;;;;;;11.75;2.13;;;10.30;99.90;;;;;;5474470;26;20416;-58
2024/04/10 02:18:39;;;;;;;5.13;2.25;;;10.30;99.90;;;;;;5454723;26;20068;-55
2024/04/10 02:21:05;;;;;;;12.45;2.65;;;10.20;99.90;;;;;;5462622;26;20005;-57
2024/04/10 02:23:31;;;;;;;6.85;1.63;;;10.30;99.90;;;;;;5486836;26;20009;-55
2024/04/10 02:25:56;;;;;;;6.65;2.10;;;10.30;99.90;;;;;;5490859;26;20013;-51
2024/04/10 02:28:22;;;;;;;8.05;1.73;;;10.20;99.90;;;;;;5458721;26;20074;-51
2024/04/10 02:30:47;;;;;;;8.50;1.88;;;10.20;99.90;;;;;;5490721;26;19998;-51
2024/04/10 02:33:14;;;;;;;8.95;1.80;;;10.20;99.90;;;;;;5490792;26;20338;-53
2024/04/10 02:35:39;;;;;;;10.27;2.47;;;10.20;99.90;;;;;;5490855;26;20443;-54
2024/04/10 02:38:05;;;;;;;5.55;2.47;;;10.10;99.90;;;;;;5490548;26;20091;-54
2024/04/10 02:40:32;;;;;;;14.05;3.17;;;10.10;99.90;;;;;;5458738;26;20008;-52
2024/04/10 02:43:04;;;;;;;6.72;1.83;;;10.10;99.90;;;;;;5490722;26;20013;-44
2024/04/10 02:45:33;;;;;;;14.35;2.10;;;10.20;99.90;;;;;;5490694;26;19998;-42
2024/04/10 02:48:00;;;;;;;6.93;1.90;;;10.20;99.90;;;;;;5490644;26;20435;-43
2024/04/10 02:50:25;;;;;;;8.80;2.67;;;10.10;99.90;;;;;;5490574;26;20005;-47
2024/04/10 02:52:51;;;;;;;11.95;2.17;;;10.10;99.90;;;;;;5490539;26;20002;-42
2024/04/10 02:55:17;;;;;;;18.92;2.13;;;10.10;99.90;;;;;;5490335;26;20526;-42
2024/04/10 02:57:42;;;;;;;6.47;2.17;;;10.10;99.90;;;;;;5490554;26;20006;-44
2024/04/10 03:00:11;;;;;;;11.77;2.00;;;10.10;99.90;;;;;;5428442;26;20002;-43
2024/04/10 03:02:39;;;;;;;10.70;1.83;;;10.10;99.90;;;;;;5490510;26;20071;-44
2024/04/10 03:05:05;;;;;;;16.33;1.80;;;10.10;99.90;;;;;;5490354;26;20005;-41
2024/04/10 03:07:31;;;;;;;18.95;2.53;;;10.00;99.90;;;;;;5490357;26;20006;-43
2024/04/10 03:09:57;;;;;;;7.32;3.15;;;10.00;99.90;;;;;;5490444;26;20471;-46
2024/04/10 03:12:23;;;;;;;10.65;2.53;;;10.00;99.90;;;;;;5490034;26;20538;-41
2024/04/10 03:14:48;;;;;;;8.60;1.88;;;10.00;99.90;;;;;;5489806;26;20441;-43
2024/04/10 03:17:16;;;;;;;8.60;2.10;;;10.00;99.90;;;;;;5490503;26;20005;-44
2024/04/10 03:19:41;;;;;;;10.05;1.88;;;9.90;99.90;;;;;;5464090;26;19998;-43
2024/04/10 03:22:08;;;;;;;8.55;1.98;;;9.90;99.90;;;;;;5453482;26;20068;-43
2024/04/10 03:24:34;;;;;;;9.45;2.40;;;9.90;99.90;;;;;;5453218;26;20002;-46
2024/04/10 03:27:00;;;;;;;11.23;1.83;;;9.90;99.90;;;;;;5453713;26;20334;-42
2024/04/10 03:29:26;;;;;;;7.18;1.98;;;9.90;99.90;;;;;;5466898;26;20005;-54
2024/04/10 03:31:53;;;;;;;8.35;2.08;;;10.00;99.90;;;;;;5490102;26;19994;-51
2024/04/10 03:34:19;;;;;;;12.45;1.83;;;10.00;99.90;;;;;;5489816;26;19994;-53
2024/04/10 03:36:44;;;;;;;11.05;1.92;;;10.00;99.90;;;;;;5490013;26;20515;-56
2024/04/10 03:39:11;;;;;;;6.28;1.50;;;10.00;99.90;;;;;;5489996;26;19994;-42
2024/04/10 03:41:37;;;;;;;13.55;2.60;;;10.00;99.90;;;;;;5457511;26;19998;-41
2024/04/10 03:44:05;;;;;;;11.02;2.13;;;10.00;99.90;;;;;;5490032;26;20422;-42
2024/04/10 03:46:33;;;;;;;4.07;1.45;;;10.00;99.90;;;;;;5468273;26;20012;-46
2024/04/10 03:48:59;;;;;;;7.68;1.40;;;10.00;99.90;;;;;;5457743;26;20458;-42
2024/04/10 03:51:25;;;;;;;8.38;1.80;;;10.00;99.90;;;;;;5489729;26;19998;-45
2024/04/10 03:53:51;;;;;;;16.20;2.22;;;10.00;99.90;;;;;;5457585;26;20074;-42
2024/04/10 03:56:16;;;;;;;7.65;1.63;;;10.00;99.90;;;;;;5489743;26;19998;-43
2024/04/10 03:58:42;;;;;;;5.35;1.30;;;10.00;99.90;;;;;;5489814;26;19998;-44
2024/04/10 04:01:07;;;;;;;6.95;1.52;;;10.00;99.90;;;;;;5489490;26;20013;-63
2024/04/10 04:03:34;;;;;;;11.25;2.40;;;10.00;99.90;;;;;;5489280;26;20447;-42
2024/04/10 04:06:00;;;;;;;12.60;2.40;;;10.00;99.90;;;;;;5457394;26;20024;-49
2024/04/10 04:08:27;;;;;;;8.98;2.03;;;10.00;99.90;;;;;;5489779;26;20004;-43
2024/04/10 04:10:54;;;;;;;11.40;1.73;;;10.00;99.90;;;;;;5489490;26;19994;-43
2024/04/10 04:13:20;;;;;;;9.65;1.80;;;10.00;99.90;;;;;;5489254;26;20026;-52
2024/04/10 04:15:46;;;;;;;12.00;2.35;;;10.00;99.90;;;;;;5489700;26;20066;-44
2024/04/10 04:18:11;;;;;;;9.57;1.85;;;10.00;99.90;;;;;;5489247;26;20002;-45
2024/04/10 04:20:37;;;;;;;4.70;1.50;;;10.00;99.90;;;;;;5456917;26;20447;-46
2024/04/10 04:23:03;;;;;;;15.35;2.20;;;10.00;99.90;;;;;;5489779;26;20008;-44
2024/04/10 04:25:34;;;;;;;7.40;2.10;;;10.10;99.90;;;;;;5489290;26;20009;-41
2024/04/10 04:28:00;;;;;;;9.35;2.00;;;10.10;99.90;;;;;;5489311;26;20005;-42
2024/04/10 04:30:27;;;;;;;12.30;1.60;;;10.10;99.90;;;;;;5456992;26;20002;-42
2024/04/10 04:32:53;;;;;;;8.30;2.08;;;10.10;99.90;;;;;;5488748;26;20005;-42
2024/04/10 04:35:20;;;;;;;13.00;1.70;;;10.10;99.90;;;;;;5487585;26;20009;-42
2024/04/10 04:37:53;;;;;;;4.75;1.85;;;10.10;99.90;;;;;;5488850;26;20004;-41
2024/04/10 04:40:20;;;;;;;13.38;1.75;;;10.10;99.90;;;;;;5489033;26;20009;-44
2024/04/10 04:42:47;;;;;;;10.85;2.90;;;10.10;99.90;;;;;;5488988;26;20002;-44
2024/04/10 04:45:13;;;;;;;10.07;2.33;;;10.00;99.90;;;;;;5488918;26;20453;-42
2024/04/10 04:47:39;;;;;;;14.95;2.17;;;10.10;99.90;;;;;;5489096;26;20006;-47
2024/04/10 04:50:08;;;;;;;3.85;1.10;;;10.10;99.90;;;;;;5456905;26;20070;-44
2024/04/10 04:52:34;;;;;;;6.18;2.20;;;10.10;99.90;;;;;;5488824;26;20074;-45
2024/04/10 04:55:01;;;;;;;8.48;1.85;;;10.10;99.90;;;;;;5488543;26;20463;-44
2024/04/10 04:57:26;;;;;;;5.90;1.50;;;10.10;99.90;;;;;;5442366;26;20458;-46
2024/04/10 04:59:52;;;;;;;2.22;1.40;;;10.00;99.90;;;;;;5452079;26;19998;-44
2024/04/10 05:02:18;;;;;;;6.28;1.92;;;10.00;99.90;;;;;;5420390;26;20035;-45
2024/04/10 05:04:57;;;;;;;5.45;1.90;;;10.10;99.90;;;;;;5476182;26;19998;-42
2024/04/10 05:07:24;;;;;;;9.77;1.83;;;10.10;99.90;;;;;;5487954;26;20482;-41
2024/04/10 05:09:50;;;;;;;11.77;2.08;;;10.10;99.90;;;;;;5487002;26;19994;-44
2024/04/10 05:12:16;;;;;;;4.93;1.70;;;10.10;99.90;;;;;;5455965;26;19998;-44
2024/04/10 05:14:48;;;;;;;4.07;1.23;;;10.10;99.90;;;;;;5456255;26;19998;-42
2024/04/10 05:17:14;;;;;;;9.90;2.22;;;10.10;99.90;;;;;;5488587;26;20474;-45
2024/04/10 05:19:39;;;;;;;8.43;1.58;;;10.10;99.90;;;;;;5488569;26;20006;-42
2024/04/10 05:22:05;;;;;;;7.70;1.35;;;10.10;99.90;;;;;;5488200;26;20445;-41
2024/04/10 05:24:31;;;;;;;6.53;1.90;;;10.20;99.90;;;;;;5487769;26;20320;-46
2024/04/10 05:26:56;;;;;;;10.93;1.77;;;10.20;99.90;;;;;;5488335;26;20014;-47
2024/04/10 05:29:22;;;;;;;11.40;1.70;;;10.20;99.90;;;;;;5488199;26;20469;-45
2024/04/10 05:31:48;;;;;;;16.15;2.60;;;10.20;99.90;;;;;;5488111;26;19998;-43
2024/04/10 05:34:15;;;;;;;5.28;1.65;;;10.20;99.90;;;;;;5487969;26;19998;-43
2024/04/10 05:36:41;;;;;;;12.68;1.70;;;10.30;99.90;;;;;;5486906;26;20463;-62
2024/04/10 05:39:07;;;;;;;8.15;1.52;;;10.30;99.90;;;;;;5480950;26;20002;-48
2024/04/10 05:41:32;;;;;;;8.77;1.98;;;10.30;99.90;;;;;;5427543;26;20025;-43
2024/04/10 05:43:58;;;;;;;13.50;2.03;;;10.30;99.90;;;;;;5456147;26;20002;-45
2024/04/10 05:46:26;;;;;;;9.93;2.03;;;10.30;99.90;;;;;;5488615;26;19992;-44
2024/04/10 05:48:52;;;;;;;4.60;1.95;;;10.30;99.90;;;;;;5491051;26;19994;-42
2024/04/10 05:51:17;;;;;;;6.65;1.85;;;10.30;99.90;;;;;;5491130;26;19990;-44
2024/04/10 05:53:43;;;;;;;10.90;2.17;;;10.40;99.90;;;;;;5491320;26;20514;-45
2024/04/10 05:56:09;;;;;;;10.00;2.47;;;10.40;99.90;;;;;;5491510;26;19998;-44
2024/04/10 05:58:35;;;;;;;4.20;1.38;;;10.40;99.90;;;;;;5491005;26;20518;-41
2024/04/10 06:01:05;;;;;;;9.27;2.25;;;10.40;99.90;;;;;;5459272;26;20441;-42
2024/04/10 06:03:31;;;;;;;10.02;1.75;;;10.40;99.90;;;;;;5491257;26;20561;-44
2024/04/10 06:05:58;;;;;;;16.10;2.35;;;10.40;99.90;;;;;;5490883;26;20002;-46
2024/04/10 06:08:23;;;;;;;12.48;1.80;;;10.40;99.90;;;;;;5491427;26;20093;-44
2024/04/10 06:10:52;;;;;;;6.70;2.05;;;10.40;99.90;;;;;;5490937;26;20002;-45
2024/04/10 06:13:17;;;;;;;12.57;2.83;;;10.30;99.90;;;;;;5490752;26;20010;-42
2024/04/10 06:15:43;;;;;;;12.43;1.85;;;10.30;99.90;;;;;;5491572;26;20024;-42
2024/04/10 06:18:09;;;;;;;6.20;2.03;;;10.30;99.90;;;;;;5491371;26;20013;-47
2024/04/10 06:20:34;;;;;;;11.93;2.58;;;10.30;99.90;;;;;;5487950;26;19994;-46
2024/04/10 06:23:00;;;;;;;10.85;1.75;;;10.40;99.90;;;;;;5491060;26;20323;-52
2024/04/10 06:25:26;;;;;;;11.23;2.28;;;10.50;99.90;;;;;;5490888;26;20006;-54
2024/04/10 06:27:51;;;;;;;12.27;2.28;;;10.60;99.90;;;;;;5490917;26;19990;-55
2024/04/10 06:30:17;;;;;;;7.68;1.88;;;10.70;99.90;;;;;;5491093;26;20342;-52
2024/04/10 06:32:43;;;;;;;6.82;1.73;;;10.80;99.90;;;;;;5491025;26;20459;-56
2024/04/10 06:35:08;;;;;;;7.10;1.90;;;10.80;99.90;;;;;;5489987;26;20039;-53
2024/04/10 06:37:35;;;;;;;17.05;2.53;;;10.80;99.90;;;;;;5458056;26;20002;-55
2024/04/10 06:40:01;;;;;;;7.63;1.33;;;10.70;99.90;;;;;;5457927;26;20013;-54
2024/04/10 06:42:26;;;;;;;6.40;1.70;;;10.70;99.90;;;;;;5490896;26;20323;-54
2024/04/10 06:44:52;;;;;;;12.35;2.03;;;10.70;99.90;;;;;;5490458;26;19991;-50
2024/04/10 06:47:17;;;;;;;10.30;1.90;;;10.70;99.90;;;;;;5490562;26;19998;-54
2024/04/10 06:49:43;;;;;;;14.63;1.95;;;10.80;99.90;;;;;;5490580;26;20378;-52
2024/04/10 06:52:09;;;;;;;8.77;2.15;;;10.80;99.90;;;;;;5490402;26;19994;-56
2024/04/10 06:54:34;;;;;;;7.55;1.98;;;10.90;99.90;;;;;;5490503;26;19990;-56
2024/04/10 06:57:00;;;;;;;12.20;1.70;;;11.00;99.90;;;;;;5490351;26;20066;-54
2024/04/10 06:59:26;;;;;;;7.93;1.65;;;11.10;99.90;;;;;;5489562;26;20045;-70
2024/04/10 07:01:51;;;;;;;8.90;1.83;;;11.10;99.90;;;;;;5458509;26;19991;-55
2024/04/10 07:04:18;;;;;;;12.05;1.77;;;11.20;99.90;;;;;;5490151;26;20039;-56
2024/04/10 07:06:44;;;;;;;6.45;1.40;;;11.30;99.90;;;;;;5490792;26;19994;-53
2024/04/10 07:09:09;;;;;;;12.52;2.85;;;11.30;99.90;;;;;;5490440;26;20489;-55
2024/04/10 07:11:35;;;;;;;9.00;1.30;;;11.40;99.90;;;;;;5489978;26;20010;-55
2024/04/10 07:14:01;;;;;;;10.65;1.83;;;11.40;99.90;;;;;;5490258;26;19990;-55
2024/04/10 07:16:27;;;;;;;5.88;1.52;;;11.50;99.90;;;;;;5457487;26;20464;-52
2024/04/10 07:18:55;;;;;;;11.18;1.80;;;11.60;99.90;;;;;;5489414;26;19990;-42
2024/04/10 07:21:21;;;;;;;3.15;1.70;;;11.70;99.90;;;;;;5490406;26;20004;-45
2024/04/10 07:23:48;;;;;;;20.85;2.10;;;11.80;99.90;;;;;;5490009;26;19991;-45
2024/04/10 07:26:16;;;;;;;4.72;0.90;;;11.80;99.90;;;;;;5457822;26;20001;-55
2024/04/10 07:28:53;;;;;;;14.07;1.40;;;11.70;99.90;;;;;;5489626;26;19990;-54
2024/04/10 07:31:22;;;;;;;7.15;1.13;;;11.90;99.90;;;;;;5490396;26;19998;-54
2024/04/10 07:33:51;;;;;;;10.00;1.60;;;11.90;99.90;;;;;;5490152;26;19994;-42
2024/04/10 07:36:18;;;;;;;13.13;1.40;;;12.00;99.90;;;;;;5488825;26;20067;-44
2024/04/10 07:38:44;;;;;;;8.23;1.15;;;12.10;99.90;;;;;;5489792;26;19998;-45
2024/04/10 07:41:10;;;;;;;15.07;1.80;;;12.10;99.90;;;;;;5489565;26;20488;-46
2024/04/10 07:43:36;;;;;;;12.10;1.75;;;12.30;99.90;;;;;;5489822;26;20010;-42
2024/04/10 07:46:21;;;;;;;6.35;1.50;;;12.40;99.90;;;;;;5489491;26;19995;-45
2024/04/10 07:48:51;;;;;;;8.23;1.35;;;12.40;99.90;;;;;;5457572;26;20002;-43
2024/04/10 07:51:17;;;;;;;10.80;1.60;;;12.40;99.90;;;;;;5489744;26;20010;-42
2024/04/10 07:53:43;;;;;;;11.50;1.30;;;12.40;99.90;;;;;;5489577;26;20350;-43
2024/04/10 07:56:09;;;;;;;9.98;1.00;;;12.30;99.90;;;;;;5489469;26;20459;-70
2024/04/10 07:58:36;;;;;;;13.18;2.83;;;12.10;99.90;;;;;;5489612;26;19998;-42
2024/04/10 08:01:03;;;;;;;13.60;1.70;;;12.10;99.90;;;;;;5489251;26;20550;-40
2024/04/10 08:03:30;;;;;;;9.45;2.33;;;12.20;99.90;;;;;;5457291;26;20400;-44
2024/04/10 08:05:57;;;;;;;12.20;1.50;;;12.40;99.90;;;;;;5489559;26;20467;-45
2024/04/10 08:08:23;;;;;;;5.90;1.17;;;12.50;99.90;;;;;;5457393;26;20008;-48
2024/04/10 08:10:56;;;;;;;11.38;1.48;;;12.80;99.90;;;;;;5488250;26;20443;-47
2024/04/10 08:13:22;;;;;;;7.43;1.00;;;13.10;99.90;;;;;;5488976;26;20017;-66
2024/04/10 08:16:04;;;;;;;10.25;1.80;;;13.30;99.90;;;;;;5457140;26;20463;-44
2024/04/10 08:18:31;;;;;;;8.30;1.50;;;13.40;99.90;;;;;;5489314;26;20324;-41
2024/04/10 08:21:04;;;;;;;12.10;1.58;;;13.50;99.90;;;;;;5488752;26;20143;-42
2024/04/10 08:23:32;;;;;;;8.07;1.77;;;13.60;99.90;;;;;;5489269;26;19994;-55
2024/04/10 08:25:58;;;;;;;11.98;1.38;;;13.70;99.90;;;;;;5488973;26;20025;-56
2024/04/10 08:28:25;;;;;;;10.43;1.45;;;13.70;99.90;;;;;;5489159;26;20438;-53
2024/04/10 08:30:54;;;;;;;6.07;1.58;;;13.80;99.90;;;;;;5456490;26;20005;-51
2024/04/10 08:33:21;;;;;;;7.50;1.52;;;14.10;99.90;;;;;;5488588;26;19998;-55
2024/04/10 08:36:02;;;;;;;7.45;2.33;;;14.10;99.90;;;;;;5456816;26;20062;-53
2024/04/10 08:38:27;;;;;;;9.00;1.85;;;14.30;99.90;;;;;;5456981;26;19994;-54
2024/04/10 08:40:55;;;;;;;4.97;1.38;;;14.40;99.90;;;;;;5488496;26;20338;-54
2024/04/10 08:43:21;;;;;;;10.27;1.48;;;14.40;99.90;;;;;;5487578;26;20013;-55
2024/04/10 08:45:48;;;;;;;10.18;1.23;;;14.40;99.90;;;;;;5488870;26;20038;-54
2024/04/10 08:48:16;;;;;;;13.50;1.73;;;14.40;99.90;;;;;;5488934;26;20053;-56
2024/04/10 08:50:42;;;;;;;10.32;2.22;;;14.50;99.90;;;;;;5488448;26;20009;-56
2024/04/10 08:53:11;;;;;;;11.90;1.58;;;13.90;99.90;;;;;;5456727;26;20311;-53
2024/04/10 08:55:40;;;;;;;6.20;0.88;;;13.20;99.90;;;;;;5489113;26;19994;-44
2024/04/10 08:58:06;;;;;;;4.88;1.30;;;12.90;99.90;;;;;;5488871;26;20454;-41
2024/04/10 09:00:31;;;;;;;11.73;0.98;;;12.80;99.90;;;;;;5461934;26;20006;-44
2024/04/10 09:02:58;;;;;;;11.02;1.92;;;13.10;99.90;;;;;;5420469;26;20014;-46
2024/04/10 09:05:26;;;;;;;4.82;1.00;;;13.40;99.90;;;;;;5469270;26;19994;-42
2024/04/10 09:08:00;;;;;;;7.03;1.40;;;13.80;99.90;;;;;;5488713;26;20443;-41
2024/04/10 09:10:26;;;;;;;12.55;2.00;;;13.60;99.90;;;;;;5488215;26;20507;-46
2024/04/10 09:13:09;;;;;;;2.92;1.10;;;13.50;99.90;;;;;;5456490;26;20465;-48
2024/04/10 09:15:38;;;;;;;4.32;1.17;;;13.20;99.90;;;;;;5483740;26;20078;-42
2024/04/10 09:18:05;;;;;;;6.68;1.35;;;13.20;99.90;;;;;;5456113;26;20013;-44
2024/04/10 09:20:31;;;;;;;4.97;1.30;;;13.20;99.90;;;;;;5479435;26;20054;-44
2024/04/10 09:23:00;;;;;;;3.92;1.42;;;13.40;99.90;;;;;;5480894;26;20090;-44
2024/04/10 09:25:26;;;;;;;3.50;0.90;;;13.10;99.90;;;;;;5487721;26;20004;-44
2024/04/10 09:28:13;;;;;;;4.93;1.58;;;13.10;99.90;;;;;;5488171;26;20009;-44
2024/04/10 09:30:38;;;;;;;3.85;1.10;;;13.00;99.90;;;;;;5488011;26;20008;-42
2024/04/10 09:33:05;;;;;;;1.77;0.93;;;13.10;99.90;;;;;;5488298;26;20451;-41
2024/04/10 09:35:33;;;;;;;6.68;0.73;;;13.10;99.90;;;;;;5487982;26;19999;-46
2024/04/10 09:38:03;;;;;;;4.82;0.90;;;12.90;99.90;;;;;;5487887;26;20030;-40
2024/04/10 09:40:30;;;;;;;7.93;0.82;;;12.80;99.90;;;;;;5487371;26;20005;-42
2024/04/10 09:43:07;;;;;;;5.43;1.08;;;13.00;99.90;;;;;;5487791;26;20006;-43
2024/04/10 09:45:42;;;;;;;5.78;1.33;;;13.40;99.90;;;;;;5487372;26;20002;-44
2024/04/10 09:48:09;;;;;;;3.22;1.05;;;13.70;99.90;;;;;;5487363;26;20017;-45
2024/04/10 09:50:42;;;;;;;2.60;0.90;;;14.00;99.90;;;;;;5450886;26;20519;-45
2024/04/10 09:53:08;;;;;;;3.28;0.82;;;14.20;99.90;;;;;;5476200;26;19994;-45
2024/04/10 09:55:38;;;;;;;4.63;0.85;;;14.50;99.90;;;;;;5486499;26;20326;-42
2024/04/10 09:58:09;;;;;;;7.50;0.98;;;14.70;99.90;;;;;;5455513;26;20078;-50
2024/04/10 10:00:36;;;;;;;9.48;1.15;;;14.50;99.90;;;;;;5483910;26;20507;-45
2024/04/10 10:03:09;;;;;;;4.43;0.93;;;14.60;99.90;;;;;;5455102;26;20009;-41
2024/04/10 10:05:38;;;;;;;4.65;1.02;;;14.90;99.90;;;;;;5487831;26;20006;-45
2024/04/10 10:08:06;;;;;;;10.25;1.02;;;15.20;99.90;;;;;;5454671;26;19994;-45
2024/04/10 10:10:45;;;;;;;5.60;1.27;;;15.40;99.90;;;;;;5486539;26;20450;-44
2024/04/10 10:13:12;;;;;;;2.83;0.90;;;15.40;99.90;;;;;;5487020;26;20077;-43
2024/04/10 10:15:39;;;;;;;2.20;0.75;;;15.20;99.90;;;;;;5486878;26;19998;-64
2024/04/10 10:18:05;;;;;;;5.00;1.60;;;15.10;99.90;;;;;;5487247;26;20005;-41
2024/04/10 10:20:33;;;;;;;2.42;0.80;;;15.20;99.90;;;;;;5487119;26;20005;-45
2024/04/10 10:23:03;;;;;;;3.85;0.88;;;15.40;99.90;;;;;;5486865;26;20002;-44
2024/04/10 10:25:29;;;;;;;3.90;1.02;;;15.70;99.90;;;;;;5487211;26;20074;-44
2024/04/10 10:28:09;;;;;;;5.30;1.58;;;15.90;99.90;;;;;;5486922;26;20331;-46
2024/04/10 10:30:36;;;;;;;3.20;1.50;;;16.00;99.90;;;;;;5454490;26;19998;-49
2024/04/10 10:33:05;;;;;;;3.83;0.63;;;16.20;99.90;;;;;;5488626;26;20311;-50
2024/04/10 10:35:31;;;;;;;5.47;0.90;;;16.00;99.90;;;;;;5490806;26;20008;-46
2024/04/10 10:37:57;;;;;;;1.60;0.45;;;15.80;99.90;;;;;;5490914;26;20435;-49
2024/04/10 10:40:24;;;;;;;3.83;0.80;;;15.90;99.90;;;;;;5489968;26;20031;-46
2024/04/10 10:43:07;;;;;;;5.75;0.85;;;16.10;99.90;;;;;;5489168;26;20034;-45
2024/04/10 10:45:34;;;;;;;3.08;0.47;;;15.70;99.90;;;;;;5454140;26;19998;-46
2024/04/10 10:48:04;;;;;;;4.13;0.95;;;15.80;99.90;;;;;;5426333;26;19994;-41
2024/04/10 10:50:30;;;;;;;3.28;0.63;;;16.00;99.90;;;;;;5489761;26;20009;-47
2024/04/10 10:52:57;;;;;;;6.68;1.05;;;15.70;99.90;;;;;;5489923;26;20415;-44
2024/04/10 10:55:24;;;;;;;4.90;0.47;;;15.60;99.90;;;;;;5490502;26;20434;-42
2024/04/10 10:58:03;;;;;;;2.07;0.60;;;15.70;99.90;;;;;;5490440;26;20005;-40
2024/04/10 11:00:34;;;;;;;6.43;1.00;;;15.90;99.90;;;;;;5462028;26;20006;-45
2024/04/10 11:03:10;;;;;;;4.07;0.50;;;15.50;98.60;;;;;;5490132;26;20368;-41
2024/04/10 11:05:37;;;;;;;3.83;0.40;;;15.50;99.90;;;;;;5490254;26;20511;-44
2024/04/10 11:08:02;;;;;;;2.83;0.40;;;15.40;99.90;;;;;;5458045;26;20027;-44
2024/04/10 11:10:29;;;;;;;7.03;1.15;;;15.70;99.90;;;;;;5489125;26;20461;-40
2024/04/10 11:13:06;;;;;;;2.50;0.77;;;15.70;99.90;;;;;;5458421;26;20030;-39
2024/04/10 11:15:43;;;;;;;5.63;0.77;;;15.60;99.90;;;;;;5489330;26;20412;-40
2024/04/10 11:18:09;;;;;;;4.22;0.60;;;15.50;99.30;;;;;;5457732;26;20026;-41
2024/04/10 11:20:35;;;;;;;5.22;0.75;;;15.50;99.00;;;;;;5490449;26;19998;-46
2024/04/10 11:23:01;;;;;;;1.27;0.50;;;15.50;99.20;;;;;;5489867;26;20008;-53
2024/04/10 11:25:30;;;;;;;3.35;0.82;;;15.70;99.90;;;;;;5490427;26;20006;-53
2024/04/10 11:27:59;;;;;;;2.15;0.38;;;15.90;99.90;;;;;;5490215;26;20002;-58
2024/04/10 11:30:25;;;;;;;4.47;0.52;;;16.10;99.90;;;;;;5489877;26;20458;-53
2024/04/10 11:32:54;;;;;;;6.07;1.02;;;16.00;99.00;;;;;;5457385;26;20014;-54
2024/04/10 11:35:20;;;;;;;2.67;0.55;;;16.00;99.90;;;;;;5457918;26;20030;-55
2024/04/10 11:37:50;;;;;;;1.70;0.50;;;16.00;99.90;;;;;;5489608;26;20091;-54
2024/04/10 11:40:16;;;;;;;2.28;0.43;;;15.90;96.10;;;;;;5489741;26;20288;-55
2024/04/10 11:42:42;;;;;;;1.60;0.38;;;15.80;99.40;;;;;;5457626;26;19998;-55
2024/04/10 11:45:09;;;;;;;4.38;0.88;;;15.90;99.20;;;;;;5456934;26;19998;-62
2024/04/10 11:47:38;;;;;;;2.77;0.60;;;15.90;99.50;;;;;;5489963;26;20364;-55
2024/04/10 11:50:07;;;;;;;1.83;0.40;;;16.00;99.30;;;;;;5488676;26;20047;-55
2024/04/10 11:52:33;;;;;;;1.85;0.70;;;16.10;99.80;;;;;;5457589;26;20000;-55
2024/04/10 11:54:59;;;;;;;4.43;0.93;;;16.30;99.90;;;;;;5489195;26;20009;-52
2024/04/10 11:57:28;;;;;;;1.52;0.28;;;16.30;98.40;;;;;;5489130;26;20319;-55
2024/04/10 11:59:53;;;;;;;2.10;0.70;;;16.30;99.90;;;;;;5489725;26;20012;-55
2024/04/10 12:02:20;;;;;;;3.92;0.73;;;16.30;99.30;;;;;;5489361;26;20001;-53
2024/04/10 12:04:45;;;;;;;1.08;0.30;;;16.50;99.30;;;;;;5457786;26;20006;-55
2024/04/10 12:07:11;;;;;;;2.38;0.50;;;16.70;99.70;;;;;;5489207;26;19998;-53
2024/04/10 12:09:39;;;;;;;2.95;0.43;;;16.80;99.10;;;;;;5489456;26;20013;-56
2024/04/10 12:12:06;;;;;;;4.70;0.80;;;16.80;99.90;;;;;;5489605;26;19994;-54
2024/04/10 12:14:31;;;;;;;9.23;0.70;;;16.80;99.80;;;;;;5489409;26;20009;-54
2024/04/10 12:16:58;;;;;;;2.20;0.47;;;16.90;98.60;;;;;;5489228;26;20001;-52
2024/04/10 12:19:23;;;;;;;2.08;0.55;;;17.10;99.80;;;;;;5489414;26;20002;-53
2024/04/10 12:21:49;;;;;;;1.95;0.50;;;16.90;99.10;;;;;;5489307;26;20005;-51
2024/04/10 12:24:14;;;;;;;1.55;0.50;;;17.00;99.40;;;;;;5488834;26;20338;-55
2024/04/10 12:26:40;;;;;;;2.50;0.40;;;17.10;98.90;;;;;;5457025;26;20006;-53
2024/04/10 12:29:06;;;;;;;5.30;0.80;;;17.20;99.40;;;;;;5488611;26;20039;-51
2024/04/10 12:31:31;;;;;;;2.22;0.70;;;17.00;97.20;;;;;;5488913;26;20006;-55
2024/04/10 12:33:57;;;;;;;0.90;0.30;;;17.20;98.10;;;;;;5489174;26;20509;-55
2024/04/10 12:39:08;;;;;;;5.13;0.85;;;17.20;98.40;;;;;;5488989;26;20013;-55
2024/04/10 12:41:34;;;;;;;3.70;0.60;;;17.30;99.40;;;;;;5457674;26;20454;-53
2024/04/10 12:44:05;;;;;;;1.17;0.55;;;17.30;98.80;;;;;;5489062;26;19998;-53
2024/04/10 12:46:31;;;;;;;4.22;0.40;;;17.40;99.00;;;;;;5489088;26;20454;-54
2024/04/10 12:48:57;;;;;;;3.30;0.30;;;17.40;98.70;;;;;;5488219;26;20009;-55